sensor_id;sensor_type;location;lat;lon;timestamp;P1;durP1;ratioP1;P2;durP2;ratioP2
37051;SDS011;22964;52.272;13.356;2023-06-22T00:01:03;8.68;;;6.72;;
37051;SDS011;22964;52.272;13.356;2023-06-22T00:03:29;7.47;;;6.22;;
37051;SDS011;22964;52.272;13.356;2023-06-22T00:05:54;9.07;;;6.70;;
37051;SDS011;22964;52.272;13.356;2023-06-22T00:08:21;9.30;;;6.80;;
37051;SDS011;22964;52.272;13.356;2023-06-22T00:10:47;9.00;;;7.00;;
37051;SDS011;22964;52.272;13.356;2023-06-22T00:13:13;9.77;;;7.05;;
37051;SDS011;22964;52.272;13.356;2023-06-22T00:15:40;8.82;;;7.00;;
37051;SDS011;22964;52.272;13.356;2023-06-22T00:18:07;8.73;;;6.45;;
37051;SDS011;22964;52.272;13.356;2023-06-22T00:20:33;8.73;;;7.13;;
37051;SDS011;22964;52.272;13.356;2023-06-22T00:23:02;9.25;;;8.02;;
37051;SDS011;22964;52.272;13.356;2023-06-22T00:25:33;9.65;;;7.70;;
37051;SDS011;22964;52.272;13.356;2023-06-22T00:27:59;8.90;;;7.47;;
37051;SDS011;22964;52.272;13.356;2023-06-22T00:30:26;10.52;;;7.75;;
37051;SDS011;22964;52.272;13.356;2023-06-22T00:32:52;8.27;;;7.32;;
37051;SDS011;22964;52.272;13.356;2023-06-22T00:35:17;7.95;;;7.00;;
37051;SDS011;22964;52.272;13.356;2023-06-22T00:37:43;11.98;;;7.97;;
37051;SDS011;22964;52.272;13.356;2023-06-22T00:40:09;8.65;;;7.15;;
37051;SDS011;22964;52.272;13.356;2023-06-22T00:42:37;9.23;;;7.80;;
37051;SDS011;22964;52.272;13.356;2023-06-22T00:45:04;9.85;;;8.07;;
37051;SDS011;22964;52.272;13.356;2023-06-22T00:47:31;9.15;;;7.70;;
37051;SDS011;22964;52.272;13.356;2023-06-22T00:49:59;10.27;;;8.35;;
37051;SDS011;22964;52.272;13.356;2023-06-22T00:52:25;10.75;;;8.05;;
37051;SDS011;22964;52.272;13.356;2023-06-22T00:54:52;13.68;;;7.82;;
37051;SDS011;22964;52.272;13.356;2023-06-22T00:57:19;9.30;;;7.65;;
37051;SDS011;22964;52.272;13.356;2023-06-22T00:59:47;10.40;;;8.00;;
37051;SDS011;22964;52.272;13.356;2023-06-22T01:02:13;10.00;;;7.90;;
37051;SDS011;22964;52.272;13.356;2023-06-22T01:04:40;11.23;;;7.85;;
37051;SDS011;22964;52.272;13.356;2023-06-22T01:13:01;10.43;;;7.68;;
37051;SDS011;22964;52.272;13.356;2023-06-22T01:15:33;10.35;;;8.15;;
37051;SDS011;22964;52.272;13.356;2023-06-22T01:18:07;12.00;;;8.43;;
37051;SDS011;22964;52.272;13.356;2023-06-22T01:20:36;11.15;;;8.23;;
37051;SDS011;22964;52.272;13.356;2023-06-22T01:23:07;10.82;;;8.05;;
37051;SDS011;22964;52.272;13.356;2023-06-22T01:30:57;9.55;;;8.15;;
37051;SDS011;22964;52.272;13.356;2023-06-22T01:33:35;10.48;;;8.43;;
37051;SDS011;22964;52.272;13.356;2023-06-22T01:36:04;11.35;;;8.45;;
37051;SDS011;22964;52.272;13.356;2023-06-22T01:38:31;11.57;;;8.98;;
37051;SDS011;22964;52.272;13.356;2023-06-22T01:40:58;10.27;;;8.32;;
37051;SDS011;22964;52.272;13.356;2023-06-22T01:43:26;10.80;;;8.30;;
37051;SDS011;22964;52.272;13.356;2023-06-22T01:45:54;9.35;;;8.10;;
37051;SDS011;22964;52.272;13.356;2023-06-22T01:48:21;11.65;;;8.30;;
37051;SDS011;22964;52.272;13.356;2023-06-22T01:50:48;10.00;;;8.00;;
37051;SDS011;22964;52.272;13.356;2023-06-22T01:53:14;10.48;;;8.70;;
37051;SDS011;22964;52.272;13.356;2023-06-22T01:55:40;9.50;;;8.27;;
37051;SDS011;22964;52.272;13.356;2023-06-22T01:58:06;11.48;;;8.10;;
37051;SDS011;22964;52.272;13.356;2023-06-22T02:00:33;12.20;;;8.30;;
37051;SDS011;22964;52.272;13.356;2023-06-22T02:03:05;10.30;;;8.35;;
37051;SDS011;22964;52.272;13.356;2023-06-22T02:05:38;9.88;;;8.38;;
37051;SDS011;22964;52.272;13.356;2023-06-22T02:08:12;11.00;;;8.45;;
37051;SDS011;22964;52.272;13.356;2023-06-22T02:10:43;11.35;;;8.50;;
37051;SDS011;22964;52.272;13.356;2023-06-22T02:13:11;13.30;;;8.02;;
37051;SDS011;22964;52.272;13.356;2023-06-22T02:15:39;13.50;;;8.10;;
37051;SDS011;22964;52.272;13.356;2023-06-22T02:18:05;9.63;;;7.65;;
37051;SDS011;22964;52.272;13.356;2023-06-22T02:20:31;10.45;;;7.70;;
37051;SDS011;22964;52.272;13.356;2023-06-22T02:22:57;10.65;;;8.00;;
37051;SDS011;22964;52.272;13.356;2023-06-22T02:25:24;11.88;;;7.82;;
37051;SDS011;22964;52.272;13.356;2023-06-22T02:27:49;11.10;;;8.10;;
37051;SDS011;22964;52.272;13.356;2023-06-22T02:30:16;9.88;;;8.18;;
37051;SDS011;22964;52.272;13.356;2023-06-22T02:32:42;9.10;;;7.88;;
37051;SDS011;22964;52.272;13.356;2023-06-22T02:35:08;10.73;;;7.85;;
37051;SDS011;22964;52.272;13.356;2023-06-22T02:37:38;12.45;;;7.90;;
37051;SDS011;22964;52.272;13.356;2023-06-22T02:40:07;13.70;;;8.50;;
37051;SDS011;22964;52.272;13.356;2023-06-22T02:42:34;12.27;;;7.63;;
37051;SDS011;22964;52.272;13.356;2023-06-22T02:45:00;9.43;;;7.85;;
37051;SDS011;22964;52.272;13.356;2023-06-22T02:47:26;10.57;;;7.97;;
37051;SDS011;22964;52.272;13.356;2023-06-22T02:49:52;10.77;;;7.82;;
37051;SDS011;22964;52.272;13.356;2023-06-22T02:52:18;9.52;;;7.80;;
37051;SDS011;22964;52.272;13.356;2023-06-22T02:54:43;9.85;;;7.78;;
37051;SDS011;22964;52.272;13.356;2023-06-22T02:57:13;10.52;;;8.45;;
37051;SDS011;22964;52.272;13.356;2023-06-22T02:59:40;11.32;;;8.18;;
37051;SDS011;22964;52.272;13.356;2023-06-22T03:02:09;10.50;;;8.48;;
37051;SDS011;22964;52.272;13.356;2023-06-22T03:04:35;10.10;;;8.13;;
37051;SDS011;22964;52.272;13.356;2023-06-22T03:07:01;9.75;;;7.82;;
37051;SDS011;22964;52.272;13.356;2023-06-22T03:09:28;12.80;;;8.50;;
37051;SDS011;22964;52.272;13.356;2023-06-22T03:11:56;9.80;;;8.15;;
37051;SDS011;22964;52.272;13.356;2023-06-22T03:14:25;10.75;;;8.32;;
37051;SDS011;22964;52.272;13.356;2023-06-22T03:16:52;10.45;;;8.68;;
37051;SDS011;22964;52.272;13.356;2023-06-22T03:19:18;10.05;;;8.07;;
37051;SDS011;22964;52.272;13.356;2023-06-22T03:21:44;10.10;;;8.02;;
37051;SDS011;22964;52.272;13.356;2023-06-22T03:24:10;9.55;;;8.15;;
37051;SDS011;22964;52.272;13.356;2023-06-22T03:26:37;11.35;;;8.43;;
37051;SDS011;22964;52.272;13.356;2023-06-22T03:29:03;12.00;;;9.02;;
37051;SDS011;22964;52.272;13.356;2023-06-22T03:31:30;10.90;;;8.15;;
37051;SDS011;22964;52.272;13.356;2023-06-22T03:33:56;9.43;;;7.82;;
37051;SDS011;22964;52.272;13.356;2023-06-22T03:36:22;10.50;;;8.18;;
37051;SDS011;22964;52.272;13.356;2023-06-22T03:38:48;8.98;;;7.90;;
37051;SDS011;22964;52.272;13.356;2023-06-22T03:41:15;10.60;;;8.43;;
37051;SDS011;22964;52.272;13.356;2023-06-22T03:43:42;11.52;;;8.82;;
37051;SDS011;22964;52.272;13.356;2023-06-22T03:46:08;11.15;;;8.82;;
37051;SDS011;22964;52.272;13.356;2023-06-22T03:48:33;11.27;;;8.82;;
37051;SDS011;22964;52.272;13.356;2023-06-22T03:50:59;11.45;;;8.75;;
37051;SDS011;22964;52.272;13.356;2023-06-22T03:53:26;11.63;;;9.10;;
37051;SDS011;22964;52.272;13.356;2023-06-22T03:55:52;11.30;;;9.40;;
37051;SDS011;22964;52.272;13.356;2023-06-22T03:58:20;12.85;;;9.13;;
37051;SDS011;22964;52.272;13.356;2023-06-22T04:00:47;9.63;;;8.43;;
37051;SDS011;22964;52.272;13.356;2023-06-22T04:03:14;11.95;;;8.90;;
37051;SDS011;22964;52.272;13.356;2023-06-22T04:05:40;12.13;;;9.10;;
37051;SDS011;22964;52.272;13.356;2023-06-22T04:08:06;12.45;;;9.02;;
37051;SDS011;22964;52.272;13.356;2023-06-22T04:10:32;11.00;;;8.93;;
37051;SDS011;22964;52.272;13.356;2023-06-22T04:12:58;12.57;;;8.73;;
37051;SDS011;22964;52.272;13.356;2023-06-22T04:15:23;9.55;;;8.40;;
37051;SDS011;22964;52.272;13.356;2023-06-22T04:17:49;11.32;;;8.77;;
37051;SDS011;22964;52.272;13.356;2023-06-22T04:20:15;10.35;;;8.30;;
37051;SDS011;22964;52.272;13.356;2023-06-22T04:22:41;12.13;;;8.55;;
37051;SDS011;22964;52.272;13.356;2023-06-22T04:25:06;13.27;;;8.45;;
37051;SDS011;22964;52.272;13.356;2023-06-22T04:27:35;12.43;;;8.65;;
37051;SDS011;22964;52.272;13.356;2023-06-22T04:30:08;10.05;;;8.35;;
37051;SDS011;22964;52.272;13.356;2023-06-22T04:32:34;13.00;;;9.18;;
37051;SDS011;22964;52.272;13.356;2023-06-22T04:35:04;10.95;;;8.70;;
37051;SDS011;22964;52.272;13.356;2023-06-22T04:37:31;9.80;;;8.40;;
37051;SDS011;22964;52.272;13.356;2023-06-22T04:39:57;11.10;;;8.80;;
37051;SDS011;22964;52.272;13.356;2023-06-22T04:42:25;11.32;;;8.48;;
37051;SDS011;22964;52.272;13.356;2023-06-22T04:44:51;11.20;;;8.02;;
37051;SDS011;22964;52.272;13.356;2023-06-22T04:47:17;9.43;;;8.02;;
37051;SDS011;22964;52.272;13.356;2023-06-22T04:49:42;9.60;;;8.23;;
37051;SDS011;22964;52.272;13.356;2023-06-22T04:52:09;9.95;;;8.05;;
37051;SDS011;22964;52.272;13.356;2023-06-22T04:54:36;10.10;;;8.15;;
37051;SDS011;22964;52.272;13.356;2023-06-22T04:57:04;9.85;;;8.20;;
37051;SDS011;22964;52.272;13.356;2023-06-22T04:59:34;9.73;;;7.87;;
37051;SDS011;22964;52.272;13.356;2023-06-22T05:02:01;11.57;;;7.95;;
37051;SDS011;22964;52.272;13.356;2023-06-22T05:04:28;11.43;;;7.85;;
37051;SDS011;22964;52.272;13.356;2023-06-22T05:06:58;8.68;;;7.68;;
37051;SDS011;22964;52.272;13.356;2023-06-22T05:09:27;10.70;;;7.97;;
37051;SDS011;22964;52.272;13.356;2023-06-22T05:11:54;10.23;;;7.57;;
37051;SDS011;22964;52.272;13.356;2023-06-22T05:14:21;9.63;;;7.03;;
37051;SDS011;22964;52.272;13.356;2023-06-22T05:16:48;9.15;;;6.65;;
37051;SDS011;22964;52.272;13.356;2023-06-22T05:19:14;8.75;;;6.65;;
37051;SDS011;22964;52.272;13.356;2023-06-22T05:21:40;8.07;;;6.60;;
37051;SDS011;22964;52.272;13.356;2023-06-22T05:24:06;9.57;;;6.53;;
37051;SDS011;22964;52.272;13.356;2023-06-22T05:26:32;7.90;;;5.80;;
37051;SDS011;22964;52.272;13.356;2023-06-22T05:28:59;11.20;;;6.60;;
37051;SDS011;22964;52.272;13.356;2023-06-22T05:31:26;8.98;;;6.07;;
37051;SDS011;22964;52.272;13.356;2023-06-22T05:33:53;8.27;;;5.82;;
37051;SDS011;22964;52.272;13.356;2023-06-22T05:36:19;8.93;;;5.32;;
37051;SDS011;22964;52.272;13.356;2023-06-22T05:38:46;6.82;;;5.53;;
37051;SDS011;22964;52.272;13.356;2023-06-22T05:41:12;11.02;;;5.55;;
37051;SDS011;22964;52.272;13.356;2023-06-22T05:43:40;7.55;;;5.03;;
37051;SDS011;22964;52.272;13.356;2023-06-22T05:46:05;7.50;;;5.28;;
37051;SDS011;22964;52.272;13.356;2023-06-22T05:48:31;9.93;;;5.20;;
37051;SDS011;22964;52.272;13.356;2023-06-22T05:50:57;6.15;;;4.80;;
37051;SDS011;22964;52.272;13.356;2023-06-22T05:53:23;6.80;;;5.00;;
37051;SDS011;22964;52.272;13.356;2023-06-22T05:55:49;6.43;;;4.80;;
37051;SDS011;22964;52.272;13.356;2023-06-22T05:58:15;5.05;;;4.22;;
37051;SDS011;22964;52.272;13.356;2023-06-22T06:00:41;5.63;;;4.45;;
37051;SDS011;22964;52.272;13.356;2023-06-22T06:03:08;6.35;;;4.10;;
37051;SDS011;22964;52.272;13.356;2023-06-22T06:05:35;5.13;;;4.10;;
37051;SDS011;22964;52.272;13.356;2023-06-22T06:08:02;5.57;;;4.03;;
37051;SDS011;22964;52.272;13.356;2023-06-22T06:10:32;6.32;;;4.20;;
37051;SDS011;22964;52.272;13.356;2023-06-22T06:12:59;5.90;;;4.30;;
37051;SDS011;22964;52.272;13.356;2023-06-22T06:15:28;5.38;;;4.70;;
37051;SDS011;22964;52.272;13.356;2023-06-22T06:17:55;6.28;;;4.70;;
37051;SDS011;22964;52.272;13.356;2023-06-22T06:20:21;5.70;;;4.45;;
37051;SDS011;22964;52.272;13.356;2023-06-22T06:22:48;5.82;;;4.28;;
37051;SDS011;22964;52.272;13.356;2023-06-22T06:25:14;5.28;;;4.13;;
37051;SDS011;22964;52.272;13.356;2023-06-22T06:27:47;6.50;;;4.22;;
37051;SDS011;22964;52.272;13.356;2023-06-22T06:30:15;8.00;;;4.22;;
37051;SDS011;22964;52.272;13.356;2023-06-22T06:32:42;5.72;;;4.07;;
37051;SDS011;22964;52.272;13.356;2023-06-22T06:35:09;4.93;;;3.83;;
37051;SDS011;22964;52.272;13.356;2023-06-22T06:37:36;8.10;;;4.18;;
37051;SDS011;22964;52.272;13.356;2023-06-22T06:40:12;7.38;;;4.10;;
37051;SDS011;22964;52.272;13.356;2023-06-22T06:42:40;5.15;;;3.90;;
37051;SDS011;22964;52.272;13.356;2023-06-22T06:45:09;7.45;;;4.07;;
37051;SDS011;22964;52.272;13.356;2023-06-22T06:47:37;8.93;;;3.80;;
37051;SDS011;22964;52.272;13.356;2023-06-22T06:50:03;6.35;;;4.30;;
37051;SDS011;22964;52.272;13.356;2023-06-22T06:52:30;5.20;;;4.03;;
37051;SDS011;22964;52.272;13.356;2023-06-22T06:54:55;6.50;;;4.00;;
37051;SDS011;22964;52.272;13.356;2023-06-22T06:57:21;4.82;;;3.42;;
37051;SDS011;22964;52.272;13.356;2023-06-22T06:59:48;5.30;;;3.58;;
37051;SDS011;22964;52.272;13.356;2023-06-22T07:02:14;4.90;;;3.33;;
37051;SDS011;22964;52.272;13.356;2023-06-22T07:04:40;4.15;;;3.00;;
37051;SDS011;22964;52.272;13.356;2023-06-22T07:07:06;4.63;;;3.25;;
37051;SDS011;22964;52.272;13.356;2023-06-22T07:09:32;6.15;;;3.10;;
37051;SDS011;22964;52.272;13.356;2023-06-22T07:11:58;4.63;;;3.33;;
37051;SDS011;22964;52.272;13.356;2023-06-22T07:14:23;4.85;;;3.13;;
37051;SDS011;22964;52.272;13.356;2023-06-22T07:16:49;4.78;;;3.03;;
37051;SDS011;22964;52.272;13.356;2023-06-22T07:19:16;6.07;;;3.28;;
37051;SDS011;22964;52.272;13.356;2023-06-22T07:21:53;4.15;;;3.00;;
37051;SDS011;22964;52.272;13.356;2023-06-22T07:24:22;4.65;;;3.03;;
37051;SDS011;22964;52.272;13.356;2023-06-22T07:26:48;4.85;;;2.95;;
37051;SDS011;22964;52.272;13.356;2023-06-22T07:29:18;3.75;;;2.80;;
37051;SDS011;22964;52.272;13.356;2023-06-22T07:31:46;5.10;;;3.00;;
37051;SDS011;22964;52.272;13.356;2023-06-22T07:34:12;4.22;;;3.28;;
37051;SDS011;22964;52.272;13.356;2023-06-22T07:36:38;5.15;;;3.60;;
37051;SDS011;22964;52.272;13.356;2023-06-22T07:39:04;3.92;;;3.17;;
37051;SDS011;22964;52.272;13.356;2023-06-22T07:41:30;4.95;;;3.30;;
37051;SDS011;22964;52.272;13.356;2023-06-22T07:43:56;5.50;;;3.58;;
37051;SDS011;22964;52.272;13.356;2023-06-22T07:46:22;3.90;;;3.13;;
37051;SDS011;22964;52.272;13.356;2023-06-22T07:48:48;3.63;;;2.70;;
37051;SDS011;22964;52.272;13.356;2023-06-22T07:51:14;4.28;;;3.10;;
37051;SDS011;22964;52.272;13.356;2023-06-22T07:53:43;3.67;;;3.13;;
37051;SDS011;22964;52.272;13.356;2023-06-22T07:56:12;4.10;;;3.25;;
37051;SDS011;22964;52.272;13.356;2023-06-22T07:58:39;4.57;;;3.00;;
37051;SDS011;22964;52.272;13.356;2023-06-22T08:01:05;4.25;;;3.30;;
37051;SDS011;22964;52.272;13.356;2023-06-22T08:03:31;3.25;;;2.90;;
37051;SDS011;22964;52.272;13.356;2023-06-22T08:05:57;3.80;;;3.05;;
37051;SDS011;22964;52.272;13.356;2023-06-22T08:08:23;6.28;;;3.22;;
37051;SDS011;22964;52.272;13.356;2023-06-22T08:10:49;3.65;;;3.13;;
37051;SDS011;22964;52.272;13.356;2023-06-22T08:13:15;4.13;;;3.00;;
37051;SDS011;22964;52.272;13.356;2023-06-22T08:15:40;3.70;;;2.78;;
37051;SDS011;22964;52.272;13.356;2023-06-22T08:18:06;3.72;;;2.80;;
37051;SDS011;22964;52.272;13.356;2023-06-22T08:20:32;4.22;;;3.00;;
37051;SDS011;22964;52.272;13.356;2023-06-22T08:22:58;6.93;;;3.30;;
37051;SDS011;22964;52.272;13.356;2023-06-22T08:25:30;5.90;;;3.10;;
37051;SDS011;22964;52.272;13.356;2023-06-22T08:27:56;4.80;;;3.33;;
37051;SDS011;22964;52.272;13.356;2023-06-22T08:30:22;4.20;;;2.90;;
37051;SDS011;22964;52.272;13.356;2023-06-22T08:32:47;6.28;;;3.13;;
37051;SDS011;22964;52.272;13.356;2023-06-22T08:35:13;4.50;;;3.00;;
37051;SDS011;22964;52.272;13.356;2023-06-22T08:37:39;4.63;;;3.08;;
37051;SDS011;22964;52.272;13.356;2023-06-22T08:40:06;4.13;;;3.25;;
37051;SDS011;22964;52.272;13.356;2023-06-22T08:42:34;6.57;;;3.03;;
37051;SDS011;22964;52.272;13.356;2023-06-22T08:45:03;3.92;;;2.97;;
37051;SDS011;22964;52.272;13.356;2023-06-22T08:47:29;5.10;;;3.20;;
37051;SDS011;22964;52.272;13.356;2023-06-22T08:49:55;9.95;;;3.03;;
37051;SDS011;22964;52.272;13.356;2023-06-22T08:52:21;15.82;;;3.85;;
37051;SDS011;22964;52.272;13.356;2023-06-22T08:54:48;3.83;;;2.72;;
37051;SDS011;22964;52.272;13.356;2023-06-22T08:57:14;3.45;;;2.80;;
37051;SDS011;22964;52.272;13.356;2023-06-22T08:59:41;3.33;;;2.58;;
37051;SDS011;22964;52.272;13.356;2023-06-22T09:02:07;5.07;;;2.97;;
37051;SDS011;22964;52.272;13.356;2023-06-22T09:04:33;3.78;;;2.75;;
37051;SDS011;22964;52.272;13.356;2023-06-22T09:07:02;3.92;;;2.90;;
37051;SDS011;22964;52.272;13.356;2023-06-22T09:09:28;7.45;;;2.97;;
37051;SDS011;22964;52.272;13.356;2023-06-22T09:11:54;3.60;;;2.78;;
37051;SDS011;22964;52.272;13.356;2023-06-22T09:14:20;4.00;;;2.83;;
37051;SDS011;22964;52.272;13.356;2023-06-22T09:16:45;3.58;;;2.53;;
37051;SDS011;22964;52.272;13.356;2023-06-22T09:19:11;4.63;;;2.78;;
37051;SDS011;22964;52.272;13.356;2023-06-22T09:21:37;3.42;;;2.50;;
37051;SDS011;22964;52.272;13.356;2023-06-22T09:24:03;4.05;;;2.78;;
37051;SDS011;22964;52.272;13.356;2023-06-22T09:26:29;3.28;;;2.50;;
37051;SDS011;22964;52.272;13.356;2023-06-22T09:28:55;3.80;;;2.78;;
37051;SDS011;22964;52.272;13.356;2023-06-22T09:31:20;4.82;;;2.90;;
37051;SDS011;22964;52.272;13.356;2023-06-22T09:36:18;5.20;;;2.60;;
37051;SDS011;22964;52.272;13.356;2023-06-22T09:38:44;4.38;;;2.53;;
37051;SDS011;22964;52.272;13.356;2023-06-22T09:41:10;3.65;;;2.50;;
37051;SDS011;22964;52.272;13.356;2023-06-22T09:43:36;3.78;;;2.78;;
37051;SDS011;22964;52.272;13.356;2023-06-22T09:46:02;4.00;;;2.63;;
37051;SDS011;22964;52.272;13.356;2023-06-22T09:48:28;4.32;;;3.08;;
37051;SDS011;22964;52.272;13.356;2023-06-22T09:50:55;3.95;;;2.83;;
37051;SDS011;22964;52.272;13.356;2023-06-22T09:53:21;5.47;;;2.80;;
37051;SDS011;22964;52.272;13.356;2023-06-22T09:55:48;3.50;;;2.50;;
37051;SDS011;22964;52.272;13.356;2023-06-22T09:58:14;4.05;;;2.70;;
37051;SDS011;22964;52.272;13.356;2023-06-22T10:00:39;5.53;;;2.72;;
37051;SDS011;22964;52.272;13.356;2023-06-22T10:03:06;4.60;;;2.85;;
37051;SDS011;22964;52.272;13.356;2023-06-22T10:05:32;3.20;;;2.88;;
37051;SDS011;22964;52.272;13.356;2023-06-22T10:07:58;4.65;;;2.67;;
37051;SDS011;22964;52.272;13.356;2023-06-22T10:10:24;8.18;;;3.10;;
37051;SDS011;22964;52.272;13.356;2023-06-22T10:12:57;3.80;;;2.80;;
37051;SDS011;22964;52.272;13.356;2023-06-22T10:15:27;4.78;;;2.90;;
37051;SDS011;22964;52.272;13.356;2023-06-22T10:17:53;3.28;;;2.72;;
37051;SDS011;22964;52.272;13.356;2023-06-22T10:20:19;3.65;;;2.63;;
37051;SDS011;22964;52.272;13.356;2023-06-22T10:22:45;4.13;;;3.05;;
37051;SDS011;22964;52.272;13.356;2023-06-22T10:25:12;3.53;;;2.80;;
37051;SDS011;22964;52.272;13.356;2023-06-22T10:27:38;3.80;;;2.80;;
37051;SDS011;22964;52.272;13.356;2023-06-22T10:30:08;4.63;;;2.85;;
37051;SDS011;22964;52.272;13.356;2023-06-22T10:32:35;3.50;;;2.65;;
37051;SDS011;22964;52.272;13.356;2023-06-22T10:35:02;3.47;;;2.70;;
37051;SDS011;22964;52.272;13.356;2023-06-22T10:37:28;4.25;;;3.00;;
37051;SDS011;22964;52.272;13.356;2023-06-22T10:39:54;3.55;;;2.60;;
37051;SDS011;22964;52.272;13.356;2023-06-22T10:42:20;3.28;;;2.58;;
37051;SDS011;22964;52.272;13.356;2023-06-22T10:44:45;3.58;;;2.60;;
37051;SDS011;22964;52.272;13.356;2023-06-22T10:47:11;6.13;;;2.67;;
37051;SDS011;22964;52.272;13.356;2023-06-22T10:49:37;3.70;;;2.65;;
37051;SDS011;22964;52.272;13.356;2023-06-22T10:52:04;5.05;;;2.90;;
37051;SDS011;22964;52.272;13.356;2023-06-22T10:54:32;4.50;;;2.97;;
37051;SDS011;22964;52.272;13.356;2023-06-22T10:57:00;3.30;;;2.70;;
37051;SDS011;22964;52.272;13.356;2023-06-22T10:59:26;3.78;;;2.80;;
37051;SDS011;22964;52.272;13.356;2023-06-22T11:01:54;3.90;;;2.85;;
37051;SDS011;22964;52.272;13.356;2023-06-22T11:04:20;7.15;;;2.80;;
37051;SDS011;22964;52.272;13.356;2023-06-22T11:06:47;3.58;;;2.67;;
37051;SDS011;22964;52.272;13.356;2023-06-22T11:09:13;4.25;;;2.95;;
37051;SDS011;22964;52.272;13.356;2023-06-22T11:11:44;4.35;;;2.88;;
37051;SDS011;22964;52.272;13.356;2023-06-22T11:14:10;3.65;;;2.90;;
37051;SDS011;22964;52.272;13.356;2023-06-22T11:16:36;3.53;;;2.90;;
37051;SDS011;22964;52.272;13.356;2023-06-22T11:19:01;5.00;;;2.90;;
37051;SDS011;22964;52.272;13.356;2023-06-22T11:21:28;3.20;;;2.65;;
37051;SDS011;22964;52.272;13.356;2023-06-22T11:23:54;3.20;;;2.60;;
37051;SDS011;22964;52.272;13.356;2023-06-22T11:26:19;3.47;;;2.63;;
37051;SDS011;22964;52.272;13.356;2023-06-22T11:28:46;5.28;;;2.90;;
37051;SDS011;22964;52.272;13.356;2023-06-22T11:31:12;4.30;;;2.83;;
37051;SDS011;22964;52.272;13.356;2023-06-22T11:33:37;4.03;;;2.33;;
37051;SDS011;22964;52.272;13.356;2023-06-22T11:36:03;3.80;;;2.30;;
37051;SDS011;22964;52.272;13.356;2023-06-22T11:38:30;3.40;;;2.50;;
37051;SDS011;22964;52.272;13.356;2023-06-22T11:40:57;3.05;;;2.40;;
37051;SDS011;22964;52.272;13.356;2023-06-22T11:43:25;3.20;;;2.53;;
37051;SDS011;22964;52.272;13.356;2023-06-22T11:45:51;5.40;;;2.40;;
37051;SDS011;22964;52.272;13.356;2023-06-22T11:48:17;4.28;;;2.60;;
37051;SDS011;22964;52.272;13.356;2023-06-22T11:50:42;3.42;;;2.53;;
37051;SDS011;22964;52.272;13.356;2023-06-22T11:53:08;4.93;;;2.72;;
37051;SDS011;22964;52.272;13.356;2023-06-22T11:55:34;4.15;;;2.40;;
37051;SDS011;22964;52.272;13.356;2023-06-22T11:57:59;4.38;;;2.60;;
37051;SDS011;22964;52.272;13.356;2023-06-22T12:00:26;3.55;;;2.40;;
37051;SDS011;22964;52.272;13.356;2023-06-22T12:02:52;2.80;;;2.50;;
37051;SDS011;22964;52.272;13.356;2023-06-22T12:05:18;3.42;;;2.83;;
37051;SDS011;22964;52.272;13.356;2023-06-22T12:07:49;3.97;;;2.50;;
37051;SDS011;22964;52.272;13.356;2023-06-22T12:10:16;2.90;;;2.38;;
37051;SDS011;22964;52.272;13.356;2023-06-22T12:12:42;2.80;;;2.20;;
37051;SDS011;22964;52.272;13.356;2023-06-22T12:15:09;4.53;;;2.95;;
37051;SDS011;22964;52.272;13.356;2023-06-22T12:17:35;3.15;;;2.55;;
37051;SDS011;22964;52.272;13.356;2023-06-22T12:20:01;3.92;;;2.63;;
37051;SDS011;22964;52.272;13.356;2023-06-22T12:22:30;3.08;;;2.47;;
37051;SDS011;22964;52.272;13.356;2023-06-22T12:24:57;3.50;;;2.42;;
37051;SDS011;22964;52.272;13.356;2023-06-22T12:27:22;2.80;;;2.50;;
37051;SDS011;22964;52.272;13.356;2023-06-22T12:29:48;3.00;;;2.35;;
37051;SDS011;22964;52.272;13.356;2023-06-22T12:32:14;4.07;;;2.45;;
37051;SDS011;22964;52.272;13.356;2023-06-22T12:34:41;4.72;;;2.38;;
37051;SDS011;22964;52.272;13.356;2023-06-22T12:37:07;3.20;;;2.60;;
37051;SDS011;22964;52.272;13.356;2023-06-22T12:39:33;2.90;;;2.40;;
37051;SDS011;22964;52.272;13.356;2023-06-22T12:41:59;3.38;;;2.30;;
37051;SDS011;22964;52.272;13.356;2023-06-22T12:44:25;4.30;;;2.70;;
37051;SDS011;22964;52.272;13.356;2023-06-22T12:46:50;3.83;;;2.70;;
37051;SDS011;22964;52.272;13.356;2023-06-22T12:49:16;3.63;;;2.78;;
37051;SDS011;22964;52.272;13.356;2023-06-22T12:51:42;4.40;;;2.60;;
37051;SDS011;22964;52.272;13.356;2023-06-22T12:54:09;3.13;;;2.38;;
37051;SDS011;22964;52.272;13.356;2023-06-22T12:56:35;3.72;;;2.60;;
37051;SDS011;22964;52.272;13.356;2023-06-22T12:59:03;4.35;;;2.70;;
37051;SDS011;22964;52.272;13.356;2023-06-22T13:01:30;3.70;;;2.55;;
37051;SDS011;22964;52.272;13.356;2023-06-22T13:03:57;3.30;;;2.65;;
37051;SDS011;22964;52.272;13.356;2023-06-22T13:06:23;3.55;;;2.67;;
37051;SDS011;22964;52.272;13.356;2023-06-22T13:08:49;2.90;;;2.28;;
37051;SDS011;22964;52.272;13.356;2023-06-22T13:11:14;3.70;;;2.53;;
37051;SDS011;22964;52.272;13.356;2023-06-22T13:13:40;3.88;;;2.58;;
37051;SDS011;22964;52.272;13.356;2023-06-22T13:16:06;4.18;;;2.55;;
37051;SDS011;22964;52.272;13.356;2023-06-22T13:18:32;5.78;;;2.53;;
37051;SDS011;22964;52.272;13.356;2023-06-22T13:21:00;4.68;;;2.22;;
37051;SDS011;22964;52.272;13.356;2023-06-22T13:23:27;3.50;;;2.58;;
37051;SDS011;22964;52.272;13.356;2023-06-22T13:25:52;3.47;;;2.72;;
37051;SDS011;22964;52.272;13.356;2023-06-22T13:28:18;3.80;;;2.75;;
37051;SDS011;22964;52.272;13.356;2023-06-22T13:30:45;3.05;;;2.65;;
37051;SDS011;22964;52.272;13.356;2023-06-22T13:33:15;3.42;;;2.80;;
37051;SDS011;22964;52.272;13.356;2023-06-22T13:35:41;2.85;;;2.38;;
37051;SDS011;22964;52.272;13.356;2023-06-22T13:38:08;4.35;;;2.72;;
37051;SDS011;22964;52.272;13.356;2023-06-22T13:40:34;3.47;;;2.60;;
37051;SDS011;22964;52.272;13.356;2023-06-22T13:43:01;4.18;;;2.47;;
37051;SDS011;22964;52.272;13.356;2023-06-22T13:45:26;3.95;;;2.80;;
37051;SDS011;22964;52.272;13.356;2023-06-22T13:47:52;3.20;;;2.58;;
37051;SDS011;22964;52.272;13.356;2023-06-22T13:50:18;2.92;;;2.40;;
37051;SDS011;22964;52.272;13.356;2023-06-22T13:52:44;3.10;;;2.40;;
37051;SDS011;22964;52.272;13.356;2023-06-22T13:55:10;7.03;;;2.72;;
37051;SDS011;22964;52.272;13.356;2023-06-22T13:57:36;3.40;;;2.53;;
37051;SDS011;22964;52.272;13.356;2023-06-22T14:00:03;3.20;;;2.50;;
37051;SDS011;22964;52.272;13.356;2023-06-22T14:02:36;3.15;;;2.63;;
37051;SDS011;22964;52.272;13.356;2023-06-22T14:05:02;3.03;;;2.63;;
37051;SDS011;22964;52.272;13.356;2023-06-22T14:07:29;3.28;;;2.63;;
37051;SDS011;22964;52.272;13.356;2023-06-22T14:09:54;5.25;;;3.05;;
37051;SDS011;22964;52.272;13.356;2023-06-22T14:12:20;4.55;;;2.80;;
37051;SDS011;22964;52.272;13.356;2023-06-22T14:14:46;3.40;;;2.70;;
37051;SDS011;22964;52.272;13.356;2023-06-22T14:17:12;3.90;;;2.85;;
37051;SDS011;22964;52.272;13.356;2023-06-22T14:19:39;2.95;;;2.65;;
37051;SDS011;22964;52.272;13.356;2023-06-22T14:22:05;3.78;;;2.63;;
37051;SDS011;22964;52.272;13.356;2023-06-22T14:24:31;3.20;;;2.70;;
37051;SDS011;22964;52.272;13.356;2023-06-22T14:26:57;2.95;;;2.45;;
37051;SDS011;22964;52.272;13.356;2023-06-22T14:29:23;3.55;;;2.83;;
37051;SDS011;22964;52.272;13.356;2023-06-22T14:31:49;3.97;;;2.97;;
37051;SDS011;22964;52.272;13.356;2023-06-22T14:34:15;6.72;;;3.25;;
37051;SDS011;22964;52.272;13.356;2023-06-22T14:36:41;4.80;;;3.03;;
37051;SDS011;22964;52.272;13.356;2023-06-22T14:39:07;4.32;;;2.85;;
37051;SDS011;22964;52.272;13.356;2023-06-22T14:41:34;3.58;;;2.97;;